Live from Altenrhein
LIVE
LSZR 291920Z AUTO VRB02KT CAVOK 06/02 Q1015

People´s C-Office:

T: +41 (0)71 858 51 65

E: c-office@peoples.ch

Meeting & Office Rooms

Your meeting place for business.

Conferene Rooms

    

Meet your trade partners in the Business Centre of the People’s Business Airport St. Gallen Altenrhein, the "Challenger" conference room.

    

  • Space for 14 people
  • Professional and discreet surroundings
  • Ideal location for fly-in conferences
  • Excellent transport links to the A1 motorway
  • Modern, high-quality equipment
  • Wi-Fi internet access
  • Video projector, flip charts
  • Free coffee and mineral water
  • Catering services if desired

      

Costs:

    

  • All-day: 250 CHF excl. VAT
  • Half-day: 180 CHF excl. VAT

 

For reservations or if you have any questions, please do not hesitate to contact our C-Office team.


Office space for rent

  

We offer you attractiv office space for rent right on the front to the daily flight business.

  

  • spacious, bright rooms
  • good transport links to the motorway and bus
  • car parking always available
  • interesting price conditions

   

For more informations please do not hesitate to contact Andrea Loacker, a.loacker@peoples.ch, +41 71 858 51 19.